createdAt,value
2023-02-17T00:03:06.467Z,4.07
2023-02-17T00:07:08.181Z,4.08
2023-02-17T00:11:10.263Z,4.11
2023-02-17T00:15:12.385Z,4.04
2023-02-17T00:19:25.065Z,4.10
2023-02-17T00:23:27.472Z,4.17
2023-02-17T00:27:29.474Z,4.20
2023-02-17T00:31:31.505Z,4.19
2023-02-17T00:35:34.580Z,4.22
2023-02-17T00:39:37.359Z,4.18
2023-02-17T00:43:39.437Z,4.25
2023-02-17T00:47:41.401Z,4.35
2023-02-17T00:51:45.984Z,4.27
2023-02-17T00:55:48.535Z,4.30
2023-02-17T00:59:50.706Z,4.28
2023-02-17T01:03:52.695Z,4.28
2023-02-17T01:07:55.734Z,4.33
2023-02-17T01:11:57.791Z,4.35
2023-02-17T01:16:00.096Z,4.45
2023-02-17T01:20:02.116Z,4.56
2023-02-17T01:24:06.332Z,4.54
2023-02-17T01:28:15.429Z,4.61
2023-02-17T01:32:17.421Z,4.55
2023-02-17T01:36:20.518Z,4.49
2023-02-17T01:40:22.926Z,4.57
2023-02-17T01:44:26.225Z,4.49
2023-02-17T01:48:33.043Z,4.50
2023-02-17T01:52:35.039Z,4.46
2023-02-17T01:56:41.028Z,4.41
2023-02-17T02:00:43.301Z,4.43
2023-02-17T02:04:48.388Z,4.36
2023-02-17T02:09:03.168Z,4.29
2023-02-17T02:13:06.961Z,4.26
2023-02-17T02:17:31.839Z,4.35
2023-02-17T02:21:58.626Z,4.31
2023-02-17T02:26:13.743Z,4.37
2023-02-17T02:30:40.400Z,4.23
2023-02-17T02:34:50.896Z,4.26
2023-02-17T02:39:07.428Z,4.31
2023-02-17T02:43:09.797Z,4.26
2023-02-17T02:47:50.184Z,4.27
2023-02-17T02:52:12.670Z,4.24
2023-02-17T02:56:36.672Z,4.21
2023-02-17T03:00:45.583Z,4.35
2023-02-17T03:04:55.740Z,4.45
2023-02-17T03:09:06.280Z,4.42
2023-02-17T03:13:08.391Z,4.39
2023-02-17T03:17:12.367Z,4.42
2023-02-17T03:21:17.219Z,4.45
2023-02-17T03:25:19.188Z,4.29
2023-02-17T03:29:21.788Z,4.44
2023-02-17T03:33:23.719Z,4.67
2023-02-17T03:37:27.627Z,4.49
2023-02-17T03:41:29.912Z,4.40
2023-02-17T03:45:32.024Z,4.59
2023-02-17T03:49:33.985Z,4.64
2023-02-17T03:53:36.103Z,4.65
2023-02-17T03:57:38.141Z,4.58
2023-02-17T04:01:40.301Z,4.61
2023-02-17T04:05:44.613Z,4.54
2023-02-17T04:09:46.621Z,4.59
2023-02-17T04:13:48.557Z,4.64
2023-02-17T04:17:50.845Z,4.76
2023-02-17T04:21:52.970Z,4.41
2023-02-17T04:25:55.311Z,4.36
2023-02-17T04:29:56.981Z,4.45
2023-02-17T04:33:58.986Z,4.55
2023-02-17T04:38:00.624Z,4.40
2023-02-17T04:42:02.662Z,4.52
2023-02-17T04:46:05.335Z,4.57
2023-02-17T04:50:09.509Z,4.46
2023-02-17T04:54:11.450Z,4.43
2023-02-17T04:58:13.610Z,4.57
2023-02-17T05:02:15.528Z,4.49
2023-02-17T05:06:17.504Z,4.55
2023-02-17T05:10:20.027Z,4.59
2023-02-17T05:14:21.986Z,4.65
2023-02-17T05:18:24.266Z,4.67
2023-02-17T05:22:27.196Z,4.66
2023-02-17T05:26:29.162Z,4.57
2023-02-17T05:30:31.370Z,4.65
2023-02-17T05:34:33.367Z,4.62
2023-02-17T05:38:36.304Z,4.61
2023-02-17T05:42:38.074Z,4.71
2023-02-17T05:46:40.248Z,4.65
2023-02-17T05:50:42.234Z,4.48
2023-02-17T05:54:44.573Z,4.61
2023-02-17T05:58:46.610Z,4.59
2023-02-17T06:02:48.824Z,4.74
2023-02-17T06:06:50.968Z,4.74
2023-02-17T06:10:54.014Z,4.78
2023-02-17T06:14:56.012Z,4.84
2023-02-17T06:19:00.090Z,4.91
2023-02-17T06:23:02.067Z,4.89
2023-02-17T06:27:04.043Z,4.93
2023-02-17T06:31:06.121Z,4.66
2023-02-17T06:35:08.482Z,4.70
2023-02-17T06:39:10.570Z,4.70
2023-02-17T06:43:12.573Z,4.79
2023-02-17T06:47:14.612Z,4.82
2023-02-17T06:51:16.564Z,4.92
2023-02-17T06:55:18.663Z,4.91
2023-02-17T06:59:20.588Z,4.73
2023-02-17T07:03:22.631Z,4.87
2023-02-17T07:07:24.790Z,4.89
2023-02-17T07:11:31.220Z,5.07
2023-02-17T07:15:33.172Z,4.78
2023-02-17T07:19:35.177Z,4.77
2023-02-17T07:23:38.385Z,4.75
2023-02-17T07:27:40.413Z,4.87
2023-02-17T07:31:42.430Z,5.04
2023-02-17T07:35:44.533Z,4.97
2023-02-17T07:39:46.497Z,5.18
2023-02-17T07:43:49.018Z,5.23
2023-02-17T07:47:52.093Z,5.38
2023-02-17T07:51:54.120Z,5.36
2023-02-17T07:55:56.214Z,5.36
2023-02-17T07:59:58.233Z,5.29
2023-02-17T08:04:00.237Z,5.27
2023-02-17T08:08:20.673Z,5.32
2023-02-17T08:12:41.359Z,5.48
2023-02-17T08:16:43.580Z,5.55
2023-02-17T08:20:45.596Z,5.55
2023-02-17T08:24:47.752Z,5.59
2023-02-17T08:28:49.822Z,5.64
2023-02-17T08:32:51.812Z,5.67
2023-02-17T08:36:53.887Z,5.82
2023-02-17T08:40:55.878Z,5.89
2023-02-17T08:44:58.162Z,5.95
2023-02-17T08:49:00.286Z,5.89
2023-02-17T08:53:02.744Z,5.98
2023-02-17T08:57:05.030Z,6.23
2023-02-17T09:01:07.516Z,6.22
2023-02-17T09:05:09.966Z,6.33
2023-02-17T09:09:14.300Z,6.34
2023-02-17T09:13:16.736Z,6.39
2023-02-17T09:17:18.844Z,6.50
2023-02-17T09:21:21.529Z,6.53
2023-02-17T09:25:23.666Z,6.73
2023-02-17T09:29:25.658Z,6.59
2023-02-17T09:33:27.747Z,6.63
2023-02-17T09:37:29.791Z,6.58
2023-02-17T09:41:40.771Z,6.53
2023-02-17T09:45:46.878Z,6.77
2023-02-17T09:49:57.083Z,6.74
2023-02-17T09:54:19.291Z,6.46
2023-02-17T09:58:32.253Z,6.42
2023-02-17T10:02:58.583Z,6.33
2023-02-17T10:07:13.414Z,6.47
2023-02-17T10:11:29.826Z,6.49
2023-02-17T10:15:36.263Z,6.37
2023-02-17T10:19:54.323Z,6.47
2023-02-17T10:23:56.488Z,6.43
2023-02-17T10:28:08.808Z,6.45
2023-02-17T10:32:20.166Z,6.21
2023-02-17T10:36:42.443Z,6.17
2023-02-17T10:40:50.049Z,6.23
2023-02-17T10:44:54.707Z,6.22
2023-02-17T10:48:59.029Z,6.28
2023-02-17T10:53:01.005Z,6.27
2023-02-17T10:57:08.159Z,6.34
2023-02-17T11:01:10.613Z,6.48
2023-02-17T11:05:33.902Z,6.40
2023-02-17T11:09:44.857Z,6.53
2023-02-17T11:14:08.215Z,6.60
2023-02-17T11:18:21.594Z,6.64
2023-02-17T11:22:32.683Z,6.76
2023-02-17T11:26:36.309Z,6.85
2023-02-17T11:30:41.174Z,6.61
2023-02-17T11:34:44.390Z,6.49
2023-02-17T11:38:46.448Z,6.68
2023-02-17T11:42:55.658Z,6.69
2023-02-17T11:47:38.916Z,6.67
2023-02-17T11:52:02.265Z,6.59
2023-02-17T11:56:15.534Z,6.48
2023-02-17T12:00:51.527Z,6.64
2023-02-17T12:05:08.779Z,6.60
2023-02-17T12:09:23.905Z,6.65
2023-02-17T12:13:50.448Z,6.64
2023-02-17T12:18:22.245Z,6.65
2023-02-17T12:22:47.056Z,6.67
2023-02-17T12:27:42.215Z,6.76
2023-02-17T12:32:03.191Z,6.89
2023-02-17T12:36:11.214Z,6.94
2023-02-17T12:40:31.021Z,6.93
2023-02-17T12:44:39.851Z,6.86
2023-02-17T12:48:55.257Z,6.88
2023-02-17T12:53:02.495Z,6.98
2023-02-17T12:57:10.728Z,6.96
2023-02-17T13:01:18.992Z,7.08
2023-02-17T13:05:27.925Z,7.09
2023-02-17T13:09:32.612Z,7.13
2023-02-17T13:13:35.569Z,7.10
2023-02-17T13:17:40.472Z,7.13
2023-02-17T13:21:54.589Z,7.14
2023-02-17T13:26:14.160Z,7.15
2023-02-17T13:30:22.487Z,7.27
2023-02-17T13:34:36.452Z,7.04
2023-02-17T13:38:38.527Z,7.11
2023-02-17T13:42:49.881Z,7.10
2023-02-17T13:46:53.206Z,6.97
2023-02-17T13:50:56.174Z,6.95
2023-02-17T13:55:05.158Z,6.98
2023-02-17T13:59:18.759Z,6.89
2023-02-17T14:03:28.098Z,6.93
2023-02-17T14:07:34.752Z,6.91
2023-02-17T14:11:36.778Z,6.81
2023-02-17T14:15:50.549Z,6.83
2023-02-17T14:19:52.681Z,6.91
2023-02-17T14:23:56.565Z,6.83
2023-02-17T14:27:58.552Z,6.90
2023-02-17T14:32:00.874Z,6.90
2023-02-17T14:36:07.798Z,6.93
2023-02-17T14:40:26.021Z,6.95
2023-02-17T14:44:27.682Z,6.93
2023-02-17T14:48:29.695Z,6.95
2023-02-17T14:52:31.738Z,6.90
2023-02-17T14:56:37.588Z,6.87
2023-02-17T15:00:39.595Z,6.94
2023-02-17T15:04:41.649Z,7.07
2023-02-17T15:08:45.965Z,6.97
2023-02-17T15:12:48.102Z,7.01
2023-02-17T15:16:50.115Z,6.95
2023-02-17T15:20:52.468Z,6.95
2023-02-17T15:24:54.423Z,7.01
2023-02-17T15:28:59.933Z,6.83
2023-02-17T15:33:02.590Z,6.82
2023-02-17T15:37:04.534Z,7.03
2023-02-17T15:41:14.048Z,6.85
2023-02-17T15:45:19.636Z,6.93
2023-02-17T15:49:22.723Z,6.99
2023-02-17T15:53:24.861Z,6.83
2023-02-17T15:57:27.009Z,6.80
2023-02-17T16:01:32.027Z,6.90
2023-02-17T16:05:34.204Z,6.98
2023-02-17T16:09:36.235Z,6.88
2023-02-17T16:13:38.460Z,7.03
2023-02-17T16:17:40.699Z,7.07
2023-02-17T16:21:42.763Z,7.02
2023-02-17T16:25:46.332Z,7.00
2023-02-17T16:29:48.382Z,7.13
2023-02-17T16:33:51.662Z,6.98
2023-02-17T16:37:59.839Z,6.98
2023-02-17T16:42:01.860Z,7.11
2023-02-17T16:46:05.625Z,7.15
2023-02-17T16:50:08.802Z,7.07
2023-02-17T16:54:11.982Z,7.05
2023-02-17T16:58:17.931Z,7.10
2023-02-17T17:02:21.730Z,7.03
2023-02-17T17:06:26.868Z,6.95
2023-02-17T17:10:31.444Z,6.94
2023-02-17T17:14:33.642Z,7.09
2023-02-17T17:18:35.710Z,6.94
2023-02-17T17:22:37.367Z,7.14
2023-02-17T17:26:43.932Z,7.25
2023-02-17T17:30:46.766Z,7.19
2023-02-17T17:34:52.043Z,7.30
2023-02-17T17:38:55.488Z,7.25
2023-02-17T17:42:57.594Z,7.22
2023-02-17T17:46:59.517Z,7.15
2023-02-17T17:51:01.608Z,7.19
2023-02-17T17:55:03.444Z,7.20
2023-02-17T17:59:06.370Z,7.21
2023-02-17T18:03:08.430Z,7.38
2023-02-17T18:07:10.603Z,7.25
2023-02-17T18:11:17.468Z,7.29
2023-02-17T18:15:19.790Z,7.11
2023-02-17T18:19:21.821Z,7.41
2023-02-17T18:23:23.827Z,7.34
2023-02-17T18:27:25.869Z,7.35
2023-02-17T18:31:29.688Z,7.44
2023-02-17T18:35:38.563Z,7.45
2023-02-17T18:39:40.818Z,7.58
2023-02-17T18:43:42.817Z,7.46
2023-02-17T18:47:46.255Z,7.46
2023-02-17T18:51:48.581Z,7.55
2023-02-17T18:55:50.651Z,7.46
2023-02-17T18:59:52.922Z,7.49
2023-02-17T19:03:55.903Z,7.61
2023-02-17T19:07:58.479Z,7.69
2023-02-17T19:12:00.788Z,7.72
2023-02-17T19:16:12.467Z,7.77
2023-02-17T19:20:17.059Z,7.93
2023-02-17T19:24:19.218Z,7.69
2023-02-17T19:28:21.701Z,7.81
2023-02-17T19:32:23.843Z,8.06
2023-02-17T19:36:26.786Z,8.08
2023-02-17T19:40:28.943Z,8.20
2023-02-17T19:44:31.820Z,8.37
2023-02-17T19:48:34.556Z,8.41
2023-02-17T19:52:37.928Z,8.49
2023-02-17T19:56:40.090Z,8.61
2023-02-17T20:00:42.491Z,8.59
2023-02-17T20:04:44.737Z,8.74
2023-02-17T20:08:51.547Z,8.84
2023-02-17T20:12:53.918Z,9.05
2023-02-17T20:16:56.538Z,9.01
2023-02-17T20:20:58.605Z,9.19
2023-02-17T20:25:00.853Z,9.27
2023-02-17T20:29:03.151Z,9.41
2023-02-17T20:33:05.925Z,9.46
2023-02-17T20:37:09.770Z,9.56
2023-02-17T20:41:16.626Z,9.58
2023-02-17T20:45:18.724Z,9.73
2023-02-17T20:49:21.499Z,9.70
2023-02-17T20:53:25.123Z,9.68
2023-02-17T20:57:27.910Z,9.80
2023-02-17T21:01:30.896Z,9.66
2023-02-17T21:05:33.182Z,9.74
2023-02-17T21:09:35.284Z,9.88
2023-02-17T21:13:37.615Z,9.82
2023-02-17T21:17:39.825Z,9.87
2023-02-17T21:21:42.398Z,9.85
2023-02-17T21:25:45.600Z,9.77
2023-02-17T21:29:48.170Z,9.85
2023-02-17T21:33:50.186Z,9.95
2023-02-17T21:37:52.336Z,10.00
2023-02-17T21:41:54.514Z,9.87
2023-02-17T21:45:56.848Z,9.95
2023-02-17T21:49:59.166Z,9.94
2023-02-17T21:54:01.344Z,9.96
2023-02-17T21:58:03.613Z,9.81
2023-02-17T22:02:05.816Z,9.82
2023-02-17T22:06:20.457Z,9.64
2023-02-17T22:10:22.886Z,9.57
2023-02-17T22:14:25.011Z,9.50
2023-02-17T22:18:27.184Z,9.50
2023-02-17T22:22:29.594Z,9.23
2023-02-17T22:26:31.950Z,9.15
2023-02-17T22:30:34.003Z,9.10
2023-02-17T22:34:36.303Z,8.95
2023-02-17T22:38:38.703Z,8.77
2023-02-17T22:42:40.555Z,8.75
2023-02-17T22:46:42.830Z,8.63
2023-02-17T22:50:44.992Z,8.72
2023-02-17T22:54:47.199Z,8.42
2023-02-17T22:58:55.400Z,8.50
2023-02-17T23:02:57.622Z,8.62
2023-02-17T23:06:59.967Z,8.53
2023-02-17T23:11:10.430Z,8.40
2023-02-17T23:15:12.939Z,8.60
2023-02-17T23:19:17.551Z,8.45
2023-02-17T23:23:21.091Z,8.47
2023-02-17T23:27:23.094Z,8.61
2023-02-17T23:31:25.292Z,8.40
2023-02-17T23:35:27.317Z,8.53
2023-02-17T23:39:29.563Z,8.30
2023-02-17T23:43:31.839Z,8.49
2023-02-17T23:47:34.127Z,8.48
2023-02-17T23:51:36.115Z,8.25
2023-02-17T23:55:38.155Z,8.55
2023-02-17T23:59:40.239Z,8.40
